createdAt,value
2023-01-01T00:00:08.172Z,5.53
2023-01-01T00:02:37.683Z,5.70
2023-01-01T00:05:06.892Z,5.73
2023-01-01T00:07:34.752Z,6.60
2023-01-01T00:10:20.272Z,5.97
2023-01-01T00:12:48.088Z,7.40
2023-01-01T00:15:16.116Z,5.50
2023-01-01T00:17:45.308Z,5.73
2023-01-01T00:20:13.522Z,6.90
2023-01-01T00:22:54.430Z,6.37
2023-01-01T00:25:23.357Z,6.30
2023-01-01T00:27:51.733Z,6.17
2023-01-01T00:30:19.954Z,5.87
2023-01-01T00:32:55.145Z,6.70
2023-01-01T00:35:24.310Z,5.40
2023-01-01T00:37:52.161Z,5.20
2023-01-01T00:40:20.126Z,5.40
2023-01-01T00:42:47.952Z,6.00
2023-01-01T00:45:21.402Z,5.20
2023-01-01T00:47:52.920Z,6.03
2023-01-01T00:50:20.897Z,6.07
2023-01-01T00:52:49.168Z,6.30
2023-01-01T00:55:17.332Z,5.90
2023-01-01T00:57:45.312Z,5.33
2023-01-01T01:00:15.087Z,5.17
2023-01-01T01:02:43.104Z,6.20
2023-01-01T01:05:12.685Z,5.17
2023-01-01T01:07:40.779Z,6.80
2023-01-01T01:10:09.913Z,7.60
2023-01-01T01:12:37.842Z,10.30
2023-01-01T01:15:07.224Z,11.13
2023-01-01T01:17:35.588Z,7.70
2023-01-01T01:20:04.368Z,6.60
2023-01-01T01:22:34.753Z,6.90
2023-01-01T01:25:02.967Z,7.33
2023-01-01T01:27:30.826Z,6.47
2023-01-01T01:29:58.722Z,5.13
2023-01-01T01:32:26.566Z,5.97
2023-01-01T01:34:54.490Z,5.03
2023-01-01T01:37:22.385Z,5.87
2023-01-01T01:39:54.003Z,6.47
2023-01-01T01:42:22.123Z,5.57
2023-01-01T01:44:56.499Z,7.10
2023-01-01T01:47:29.195Z,7.97
2023-01-01T01:50:02.517Z,6.03
2023-01-01T01:52:31.935Z,8.57
2023-01-01T01:55:02.671Z,7.40
2023-01-01T01:57:31.365Z,6.67
2023-01-01T02:00:03.710Z,8.00
2023-01-01T02:02:39.388Z,10.97
2023-01-01T02:05:08.551Z,10.10
2023-01-01T02:07:37.705Z,10.07
2023-01-01T02:10:07.669Z,9.17
2023-01-01T02:12:35.623Z,10.90
2023-01-01T02:15:03.547Z,11.60
2023-01-01T02:17:39.449Z,11.50
2023-01-01T02:20:30.424Z,11.70
2023-01-01T02:23:27.078Z,12.10
2023-01-01T02:26:09.274Z,10.73
2023-01-01T02:28:50.523Z,9.47
2023-01-01T02:31:25.528Z,13.97
2023-01-01T02:33:56.286Z,15.90
2023-01-01T02:36:25.425Z,14.13
2023-01-01T02:38:56.441Z,12.00
2023-01-01T02:41:28.430Z,13.00
2023-01-01T02:48:52.979Z,13.00
2023-01-01T02:51:29.466Z,14.40
2023-01-01T02:54:06.266Z,12.37
2023-01-01T02:56:47.426Z,11.50
2023-01-01T02:59:43.004Z,12.10
2023-01-01T03:02:21.034Z,12.33
2023-01-01T03:04:57.776Z,10.53
2023-01-01T03:07:34.626Z,10.03
2023-01-01T03:10:11.115Z,13.83
2023-01-01T03:12:45.265Z,10.80
2023-01-01T03:15:25.014Z,12.20
2023-01-01T03:17:59.564Z,12.03
2023-01-01T03:20:32.135Z,11.90
2023-01-01T03:23:04.455Z,11.90
2023-01-01T03:25:35.143Z,11.30
2023-01-01T03:28:07.503Z,10.03
2023-01-01T03:30:39.888Z,9.40
2023-01-01T03:33:13.753Z,10.80
2023-01-01T03:35:47.519Z,9.43
2023-01-01T03:38:19.090Z,9.10
2023-01-01T03:40:49.935Z,8.53
2023-01-01T03:43:23.135Z,8.83
2023-01-01T03:45:54.515Z,8.47
2023-01-01T03:48:22.518Z,9.27
2023-01-01T03:50:59.745Z,10.50
2023-01-01T03:53:39.671Z,10.70
2023-01-01T03:56:15.064Z,11.67
2023-01-01T03:58:48.946Z,10.63
2023-01-01T04:01:23.866Z,8.90
2023-01-01T04:03:52.118Z,8.70
2023-01-01T04:06:20.530Z,9.33
2023-01-01T04:08:50.293Z,8.63
2023-01-01T04:11:39.736Z,8.10
2023-01-01T04:14:07.730Z,8.00
2023-01-01T04:16:37.070Z,9.47
2023-01-01T04:19:07.036Z,9.73
2023-01-01T04:21:35.004Z,9.53
2023-01-01T04:24:02.943Z,9.33
2023-01-01T04:26:30.839Z,11.17
2023-01-01T04:28:58.690Z,8.90
2023-01-01T04:31:26.585Z,7.83
2023-01-01T04:33:56.288Z,8.23
2023-01-01T04:36:24.156Z,8.33
2023-01-01T04:38:52.055Z,7.63
2023-01-01T04:41:19.954Z,7.47
2023-01-01T04:43:49.794Z,7.70
2023-01-01T04:46:18.944Z,8.23
2023-01-01T04:48:47.154Z,8.03
2023-01-01T04:51:17.849Z,7.90
2023-01-01T04:53:46.506Z,8.10
2023-01-01T04:56:15.974Z,8.17
2023-01-01T04:58:44.436Z,8.50
2023-01-01T05:01:17.374Z,7.57
2023-01-01T05:03:45.382Z,7.43
2023-01-01T05:06:14.255Z,7.20
2023-01-01T05:08:45.673Z,8.90
2023-01-01T05:11:15.603Z,7.53
2023-01-01T05:13:45.835Z,9.20
2023-01-01T05:16:15.377Z,8.77
2023-01-01T05:18:44.133Z,8.10
2023-01-01T05:21:14.635Z,8.77
2023-01-01T05:23:44.361Z,7.63
2023-01-01T05:26:13.319Z,7.90
2023-01-01T05:28:41.915Z,7.40
2023-01-01T05:31:11.956Z,7.70
2023-01-01T05:33:39.857Z,6.67
2023-01-01T05:36:11.271Z,6.03
2023-01-01T05:38:39.185Z,7.70
2023-01-01T05:41:09.726Z,7.43
2023-01-01T05:43:37.989Z,7.60
2023-01-01T05:46:08.154Z,8.67
2023-01-01T05:48:37.001Z,10.20
2023-01-01T05:51:06.503Z,9.37
2023-01-01T05:53:35.051Z,8.70
2023-01-01T05:56:03.503Z,8.30
2023-01-01T05:58:34.138Z,7.63
2023-01-01T06:01:07.775Z,7.47
2023-01-01T06:03:36.206Z,6.90
2023-01-01T06:06:08.705Z,6.93
2023-01-01T06:08:36.655Z,8.33
2023-01-01T06:11:06.928Z,6.40
2023-01-01T06:13:36.311Z,7.43
2023-01-01T06:16:05.016Z,7.07
2023-01-01T06:18:34.732Z,6.30
2023-01-01T06:21:06.563Z,6.50
2023-01-01T06:23:35.108Z,8.07
2023-01-01T06:26:10.872Z,8.97
2023-01-01T06:28:40.303Z,8.00
2023-01-01T06:31:11.228Z,6.90
2023-01-01T06:33:40.133Z,7.60
2023-01-01T06:36:10.535Z,8.70
2023-01-01T06:38:41.501Z,7.20
2023-01-01T06:41:12.628Z,9.00
2023-01-01T06:43:42.154Z,7.37
2023-01-01T06:46:16.947Z,7.97
2023-01-01T06:48:46.007Z,7.50
2023-01-01T06:51:17.358Z,6.37
2023-01-01T06:53:45.344Z,8.07
2023-01-01T06:56:13.702Z,10.53
2023-01-01T06:58:43.318Z,8.10
2023-01-01T07:01:13.307Z,7.80
2023-01-01T07:03:42.405Z,6.80
2023-01-01T07:06:10.978Z,7.70
2023-01-01T07:08:39.011Z,10.23
2023-01-01T07:11:06.969Z,8.50
2023-01-01T07:13:34.867Z,9.93
2023-01-01T07:16:10.199Z,10.00
2023-01-01T07:18:40.429Z,8.17
2023-01-01T07:21:28.455Z,6.67
2023-01-01T07:23:57.350Z,8.00
2023-01-01T07:26:25.708Z,8.80
2023-01-01T07:28:53.721Z,7.93
2023-01-01T07:31:23.186Z,9.00
2023-01-01T07:33:51.141Z,8.13
2023-01-01T07:36:19.013Z,8.40
2023-01-01T07:38:46.930Z,8.37
2023-01-01T07:41:14.864Z,7.87
2023-01-01T07:43:43.141Z,6.40
2023-01-01T07:46:13.351Z,7.03
2023-01-01T07:48:42.827Z,7.03
2023-01-01T07:51:10.723Z,6.87
2023-01-01T07:53:38.669Z,9.10
2023-01-01T07:56:07.315Z,8.33
2023-01-01T07:58:35.246Z,7.60
2023-01-01T08:01:03.231Z,7.83
2023-01-01T08:03:31.268Z,7.77
2023-01-01T08:06:00.559Z,7.43
2023-01-01T08:08:28.489Z,9.20
2023-01-01T08:11:03.791Z,10.33
2023-01-01T08:13:32.059Z,9.03
2023-01-01T08:16:00.238Z,9.63
2023-01-01T08:18:28.316Z,9.10
2023-01-01T08:20:57.449Z,9.60
2023-01-01T08:23:26.778Z,8.80
2023-01-01T08:25:54.633Z,9.40
2023-01-01T08:28:22.609Z,8.30
2023-01-01T08:30:51.513Z,10.00
2023-01-01T08:33:19.399Z,8.20
2023-01-01T08:35:52.082Z,9.67
2023-01-01T08:38:21.888Z,11.53
2023-01-01T08:40:51.303Z,10.47
2023-01-01T08:43:19.355Z,8.57
2023-01-01T08:45:47.253Z,8.87
2023-01-01T08:48:15.159Z,10.30
2023-01-01T08:50:43.225Z,10.20
2023-01-01T08:53:11.114Z,10.10
2023-01-01T08:55:38.991Z,11.50
2023-01-01T08:58:08.573Z,10.33
2023-01-01T09:00:36.621Z,10.20
2023-01-01T09:03:04.887Z,11.47
2023-01-01T09:05:32.864Z,12.73
2023-01-01T09:08:00.729Z,12.87
2023-01-01T09:10:28.771Z,12.77
2023-01-01T09:12:56.633Z,13.90
2023-01-01T09:15:26.003Z,15.47
2023-01-01T09:17:53.890Z,17.27
2023-01-01T09:20:22.012Z,15.90
2023-01-01T09:22:50.034Z,18.17
2023-01-01T09:25:18.056Z,16.80
2023-01-01T09:27:45.980Z,15.47
2023-01-01T09:30:14.890Z,15.80
2023-01-01T09:32:44.141Z,12.43
2023-01-01T09:35:12.106Z,7.60
2023-01-01T09:37:39.985Z,6.60
2023-01-01T09:40:09.636Z,6.67
2023-01-01T09:42:44.077Z,6.57
2023-01-01T09:45:23.764Z,5.83
2023-01-01T09:47:57.561Z,5.23
2023-01-01T09:50:31.922Z,7.13
2023-01-01T09:53:01.815Z,7.90
2023-01-01T09:55:44.603Z,7.83
2023-01-01T09:58:14.146Z,9.70
2023-01-01T10:00:46.192Z,9.30
2023-01-01T10:03:34.051Z,8.27
2023-01-01T10:06:10.227Z,10.47
2023-01-01T10:08:49.813Z,11.80
2023-01-01T10:11:24.875Z,12.30
2023-01-01T10:13:54.408Z,11.27
2023-01-01T10:16:31.749Z,10.17
2023-01-01T10:19:20.959Z,8.43
2023-01-01T10:21:51.923Z,8.23
2023-01-01T10:24:35.639Z,7.80
2023-01-01T10:27:05.764Z,6.63
2023-01-01T10:29:41.898Z,4.83
2023-01-01T10:32:21.456Z,4.60
2023-01-01T10:34:52.593Z,4.50
2023-01-01T10:37:20.932Z,4.60
2023-01-01T10:39:49.379Z,4.77
2023-01-01T10:42:17.632Z,3.80
2023-01-01T10:44:45.911Z,3.20
2023-01-01T10:47:28.661Z,3.30
2023-01-01T10:49:59.715Z,3.60
2023-01-01T10:52:36.597Z,3.53
2023-01-01T10:55:06.470Z,3.33
2023-01-01T10:57:37.948Z,3.50
2023-01-01T11:00:22.704Z,3.83
2023-01-01T11:03:12.682Z,3.63
2023-01-01T11:06:00.605Z,3.30
2023-01-01T11:08:29.923Z,3.57
2023-01-01T11:10:59.845Z,2.80
2023-01-01T11:13:28.267Z,3.10
2023-01-01T11:15:56.680Z,3.17
2023-01-01T11:18:28.715Z,2.83
2023-01-01T11:20:59.596Z,3.20
2023-01-01T11:23:33.134Z,2.70
2023-01-01T11:26:07.359Z,3.00
2023-01-01T11:28:36.381Z,2.10
2023-01-01T11:31:08.329Z,2.60
2023-01-01T11:33:40.570Z,3.50
2023-01-01T11:36:10.521Z,3.10
2023-01-01T11:38:38.657Z,2.77
2023-01-01T11:41:08.458Z,2.97
2023-01-01T11:43:41.014Z,3.13
2023-01-01T11:46:11.931Z,2.93
2023-01-01T11:48:44.112Z,2.53
2023-01-01T11:51:31.039Z,2.70
2023-01-01T11:54:11.969Z,2.30
2023-01-01T11:56:40.447Z,2.93
2023-01-01T11:59:16.317Z,2.00
2023-01-01T12:01:47.689Z,2.57
2023-01-01T12:04:22.559Z,3.33
2023-01-01T12:06:56.688Z,2.80
2023-01-01T12:09:28.638Z,2.20
2023-01-01T12:12:02.816Z,2.53
2023-01-01T12:14:38.069Z,2.87
2023-01-01T12:17:15.939Z,1.80
2023-01-01T12:19:49.280Z,2.60
2023-01-01T12:22:20.531Z,2.63
2023-01-01T12:24:49.470Z,1.93
2023-01-01T12:27:22.984Z,2.20
2023-01-01T12:30:05.286Z,2.90
2023-01-01T12:32:46.204Z,3.00
2023-01-01T12:35:24.819Z,2.90
2023-01-01T12:38:02.794Z,2.70
2023-01-01T12:40:42.361Z,2.43
2023-01-01T12:43:13.452Z,2.17
2023-01-01T12:46:13.558Z,2.40
2023-01-01T12:48:53.536Z,1.90
2023-01-01T12:51:32.061Z,2.10
2023-01-01T12:54:15.978Z,2.40
2023-01-01T12:56:50.712Z,3.60
2023-01-01T12:59:23.653Z,2.00
2023-01-01T13:01:57.087Z,2.70
2023-01-01T13:04:25.141Z,3.20
2023-01-01T13:06:56.244Z,2.27
2023-01-01T13:09:28.561Z,2.23
2023-01-01T13:11:59.842Z,2.67
2023-01-01T13:14:28.449Z,2.27
2023-01-01T13:16:57.601Z,2.53
2023-01-01T13:19:31.751Z,1.90
2023-01-01T13:21:59.978Z,2.60
2023-01-01T13:24:29.400Z,2.23
2023-01-01T13:26:57.334Z,2.80
2023-01-01T13:29:45.568Z,2.53
2023-01-01T13:32:15.089Z,2.20
2023-01-01T13:35:17.574Z,1.80
2023-01-01T13:37:49.317Z,2.77
2023-01-01T13:40:51.059Z,2.80
2023-01-01T13:43:30.429Z,2.73
2023-01-01T13:46:11.847Z,3.20
2023-01-01T13:49:16.217Z,2.57
2023-01-01T13:52:19.568Z,2.33
2023-01-01T13:55:17.399Z,2.53
2023-01-01T13:58:08.407Z,2.10
2023-01-01T14:00:49.415Z,2.80
2023-01-01T14:03:19.045Z,3.53
2023-01-01T14:05:50.037Z,2.60
2023-01-01T14:08:31.988Z,2.20
2023-01-01T14:11:02.184Z,2.63
2023-01-01T14:13:40.353Z,4.00
2023-01-01T14:16:13.730Z,2.17
2023-01-01T14:18:44.486Z,3.43
2023-01-01T14:21:14.623Z,2.67
2023-01-01T14:23:44.970Z,2.40
2023-01-01T14:26:15.584Z,2.77
2023-01-01T14:28:45.511Z,3.47
2023-01-01T14:31:17.429Z,2.57
2023-01-01T14:33:45.536Z,2.40
2023-01-01T14:36:21.677Z,2.37
2023-01-01T14:38:51.330Z,2.43
2023-01-01T14:41:23.292Z,2.37
2023-01-01T14:43:56.271Z,3.33
2023-01-01T14:46:26.739Z,2.73
2023-01-01T14:48:57.524Z,2.70
2023-01-01T14:51:27.685Z,3.43
2023-01-01T14:53:59.072Z,2.80
2023-01-01T14:56:28.982Z,2.90
2023-01-01T14:59:06.222Z,2.30
2023-01-01T15:01:34.410Z,2.70
2023-01-01T15:04:04.883Z,2.60
2023-01-01T15:06:33.579Z,2.90
2023-01-01T15:09:01.519Z,2.60
2023-01-01T15:11:29.582Z,2.77
2023-01-01T15:14:02.191Z,2.17
2023-01-01T15:16:39.700Z,2.50
2023-01-01T15:19:19.518Z,2.80
2023-01-01T15:21:47.634Z,3.10
2023-01-01T15:24:20.385Z,2.27
2023-01-01T15:26:52.163Z,3.43
2023-01-01T15:29:29.170Z,2.93
2023-01-01T15:31:59.997Z,2.50
2023-01-01T15:34:31.590Z,2.67
2023-01-01T15:37:09.621Z,2.17
2023-01-01T15:39:47.452Z,2.60
2023-01-01T15:42:35.034Z,3.07
2023-01-01T15:45:21.576Z,2.60
2023-01-01T15:47:50.634Z,2.20
2023-01-01T15:50:24.841Z,2.53
2023-01-01T15:52:56.091Z,2.70
2023-01-01T15:55:26.849Z,1.93
2023-01-01T15:57:55.284Z,2.67
2023-01-01T16:00:26.959Z,3.80
2023-01-01T16:02:59.405Z,3.10
2023-01-01T16:05:28.599Z,2.80
2023-01-01T16:08:01.153Z,2.63
2023-01-01T16:10:29.058Z,2.30
2023-01-01T16:12:57.357Z,3.50
2023-01-01T16:15:27.338Z,4.00
2023-01-01T16:17:55.319Z,5.00
2023-01-01T16:20:23.533Z,3.20
2023-01-01T16:22:51.524Z,3.60
2023-01-01T16:25:22.106Z,4.63
2023-01-01T16:27:50.170Z,3.10
2023-01-01T16:30:18.191Z,3.17
2023-01-01T16:32:49.082Z,3.17
2023-01-01T16:35:17.481Z,2.70
2023-01-01T16:37:45.408Z,2.90
2023-01-01T16:40:13.592Z,3.10
2023-01-01T16:42:41.570Z,2.57
2023-01-01T16:45:18.357Z,3.40
2023-01-01T16:47:47.660Z,2.93
2023-01-01T16:50:15.785Z,3.43
2023-01-01T16:52:45.134Z,2.80
2023-01-01T16:55:13.650Z,3.27
2023-01-01T16:57:41.848Z,3.60
2023-01-01T17:00:11.434Z,2.90
2023-01-01T17:02:39.492Z,2.57
2023-01-01T17:05:09.954Z,2.40
2023-01-01T17:07:37.832Z,2.20
2023-01-01T17:10:06.401Z,1.83
2023-01-01T17:12:34.321Z,2.80
2023-01-01T17:15:02.235Z,2.60
2023-01-01T17:17:30.189Z,2.97
2023-01-01T17:19:58.096Z,2.30
2023-01-01T17:22:33.901Z,2.80
2023-01-01T17:25:02.345Z,3.00
2023-01-01T17:27:30.315Z,2.17
2023-01-01T17:29:58.238Z,2.57
2023-01-01T17:32:26.117Z,3.00
2023-01-01T17:34:53.998Z,2.60
2023-01-01T17:37:21.876Z,2.10
2023-01-01T17:39:51.093Z,2.70
2023-01-01T17:42:18.987Z,2.23
2023-01-01T17:44:47.235Z,2.10
2023-01-01T17:47:15.124Z,2.13
2023-01-01T17:49:43.418Z,3.17
2023-01-01T17:52:11.588Z,2.53
2023-01-01T17:54:39.468Z,2.00
2023-01-01T17:57:08.798Z,2.13
2023-01-01T17:59:36.655Z,2.37
2023-01-01T18:02:05.872Z,2.10
2023-01-01T18:04:33.973Z,2.40
2023-01-01T18:07:06.316Z,2.70
2023-01-01T18:09:37.976Z,2.37
2023-01-01T18:12:08.104Z,2.47
2023-01-01T18:14:36.026Z,2.90
2023-01-01T18:17:03.969Z,2.60
2023-01-01T18:19:32.519Z,2.90
2023-01-01T18:22:00.413Z,2.00
2023-01-01T18:24:28.417Z,2.67
2023-01-01T18:26:56.437Z,2.33
2023-01-01T18:29:25.675Z,2.33
2023-01-01T18:31:53.574Z,2.23
2023-01-01T18:34:21.719Z,2.23
2023-01-01T18:36:49.644Z,1.77
2023-01-01T18:39:22.315Z,2.37
2023-01-01T18:42:15.315Z,2.90
2023-01-01T18:44:44.574Z,2.67
2023-01-01T18:47:17.454Z,2.90
2023-01-01T18:49:49.266Z,2.17
2023-01-01T18:52:23.080Z,1.90
2023-01-01T18:55:04.001Z,2.80
2023-01-01T18:57:32.845Z,2.10
2023-01-01T19:00:14.547Z,2.27
2023-01-01T19:02:46.337Z,2.50
2023-01-01T19:05:17.362Z,2.50
2023-01-01T19:07:50.975Z,2.23
2023-01-01T19:10:18.922Z,2.87
2023-01-01T19:12:46.825Z,3.00
2023-01-01T19:15:18.929Z,2.50
2023-01-01T19:17:47.067Z,2.00
2023-01-01T19:20:18.389Z,2.40
2023-01-01T19:22:47.723Z,1.97
2023-01-01T19:25:38.355Z,2.10
2023-01-01T19:28:26.929Z,2.00
2023-01-01T19:30:56.423Z,2.60
2023-01-01T19:33:24.539Z,2.33
2023-01-01T19:35:52.473Z,2.60
2023-01-01T19:38:20.374Z,2.80
2023-01-01T19:40:48.546Z,2.00
2023-01-01T19:43:16.433Z,2.10
2023-01-01T19:45:44.300Z,2.27
2023-01-01T19:48:13.558Z,1.70
2023-01-01T19:50:41.432Z,2.07
2023-01-01T19:53:09.302Z,1.97
2023-01-01T19:55:37.518Z,1.93
2023-01-01T19:58:05.374Z,2.10
2023-01-01T20:00:33.287Z,2.43
2023-01-01T20:03:26.282Z,1.90
2023-01-01T20:05:50.630Z,2.33
2023-01-01T20:08:18.539Z,2.30
2023-01-01T20:10:46.476Z,2.73
2023-01-01T20:13:14.399Z,2.53
2023-01-01T20:15:46.673Z,2.10
2023-01-01T20:18:14.943Z,2.13
2023-01-01T20:21:03.144Z,2.00
2023-01-01T20:23:32.406Z,1.80
2023-01-01T20:26:00.530Z,2.03
2023-01-01T20:28:45.954Z,2.17
2023-01-01T20:31:13.863Z,1.90
2023-01-01T20:33:41.781Z,2.33
2023-01-01T20:36:27.608Z,2.07
2023-01-01T20:38:56.873Z,3.73
2023-01-01T20:41:24.772Z,3.80
2023-01-01T20:43:53.407Z,3.80
2023-01-01T20:46:21.431Z,3.00
2023-01-01T20:48:49.926Z,2.80
2023-01-01T20:51:17.822Z,9.80
2023-01-01T20:53:45.904Z,11.00
2023-01-01T20:56:15.217Z,9.30
2023-01-01T20:58:48.544Z,6.30
2023-01-01T21:01:19.347Z,6.27
2023-01-01T21:03:47.352Z,4.33
2023-01-01T21:06:21.880Z,4.20
2023-01-01T21:08:51.944Z,3.53
2023-01-01T21:11:21.495Z,3.63
2023-01-01T21:13:50.119Z,3.23
2023-01-01T21:16:19.910Z,3.00
2023-01-01T21:18:49.216Z,3.17
2023-01-01T21:21:19.971Z,3.17
2023-01-01T21:23:48.603Z,2.73
2023-01-01T21:26:19.153Z,3.23
2023-01-01T21:28:48.821Z,3.30
2023-01-01T21:31:17.068Z,2.80
2023-01-01T21:33:46.358Z,3.80
2023-01-01T21:36:19.248Z,2.63
2023-01-01T21:38:47.895Z,2.77
2023-01-01T21:41:22.345Z,2.97
2023-01-01T21:43:54.801Z,2.47
2023-01-01T21:46:35.954Z,2.83
2023-01-01T21:49:16.678Z,3.03
2023-01-01T21:51:50.788Z,2.60
2023-01-01T21:54:26.597Z,2.50
2023-01-01T21:56:57.165Z,2.90
2023-01-01T21:59:33.361Z,2.80
2023-01-01T22:02:33.931Z,2.90
2023-01-01T22:05:15.840Z,2.70
2023-01-01T22:08:01.301Z,2.30
2023-01-01T22:10:35.338Z,2.57
2023-01-01T22:13:03.345Z,2.73
2023-01-01T22:15:40.147Z,3.13
2023-01-01T22:18:23.288Z,2.43
2023-01-01T22:20:51.708Z,2.70
2023-01-01T22:23:34.702Z,3.37
2023-01-01T22:26:05.318Z,2.90
2023-01-01T22:28:41.529Z,3.00
2023-01-01T22:31:14.817Z,2.77
2023-01-01T22:33:45.987Z,2.17
2023-01-01T22:36:16.885Z,3.00
2023-01-01T22:38:45.244Z,2.40
2023-01-01T22:41:14.184Z,2.30
2023-01-01T22:43:44.226Z,2.43
2023-01-01T22:46:18.513Z,2.83
2023-01-01T22:48:47.417Z,2.40
2023-01-01T22:51:20.879Z,2.90
2023-01-01T22:53:48.830Z,3.00
2023-01-01T22:56:16.723Z,2.83
2023-01-01T22:58:44.651Z,3.47
2023-01-01T23:01:14.378Z,2.87
2023-01-01T23:03:42.309Z,2.40
2023-01-01T23:06:10.224Z,2.30
2023-01-01T23:08:38.228Z,2.70
2023-01-01T23:11:06.123Z,3.13
2023-01-01T23:13:51.471Z,3.17
2023-01-01T23:16:20.781Z,2.77
2023-01-01T23:18:48.662Z,3.13
2023-01-01T23:21:26.736Z,2.57
2023-01-01T23:23:57.113Z,2.70
2023-01-01T23:26:25.915Z,3.03
2023-01-01T23:28:55.129Z,3.00
2023-01-01T23:31:26.787Z,3.43
2023-01-01T23:33:55.838Z,3.20
2023-01-01T23:36:24.138Z,2.73
2023-01-01T23:38:52.062Z,2.63
2023-01-01T23:41:19.997Z,2.83
2023-01-01T23:43:47.908Z,2.60
2023-01-01T23:46:16.516Z,2.90
2023-01-01T23:48:47.391Z,3.40
2023-01-01T23:51:15.849Z,2.80
2023-01-01T23:53:43.728Z,2.60
2023-01-01T23:56:11.622Z,3.63
2023-01-01T23:58:39.567Z,2.27
